createdAt,value
2023-05-24T00:00:53.401Z,101569.97
2023-05-24T00:03:21.877Z,101570.00
2023-05-24T00:05:52.477Z,101563.84
2023-05-24T00:08:20.430Z,101570.75
2023-05-24T00:10:48.564Z,101563.75
2023-05-24T00:13:16.526Z,101568.16
2023-05-24T00:15:44.521Z,101560.38
2023-05-24T00:18:12.528Z,101565.59
2023-05-24T00:20:40.798Z,101557.78
2023-05-24T00:23:10.531Z,101562.09
2023-05-24T00:25:38.425Z,101567.22
2023-05-24T00:28:06.429Z,101562.84
2023-05-24T00:30:34.319Z,101569.88
2023-05-24T00:33:02.261Z,101556.28
2023-05-24T00:35:31.672Z,101549.53
2023-05-24T00:37:59.659Z,101547.84
2023-05-24T00:40:29.069Z,101543.44
2023-05-24T00:42:57.093Z,101538.34
2023-05-24T00:45:24.989Z,101541.59
2023-05-24T00:47:52.888Z,101545.97
2023-05-24T00:50:21.178Z,101540.84
2023-05-24T00:52:49.968Z,101539.00
2023-05-24T00:55:19.338Z,101542.41
2023-05-24T00:57:48.658Z,101535.44
2023-05-24T01:00:17.318Z,101548.47
2023-05-24T01:02:45.295Z,101547.44
2023-05-24T01:05:13.745Z,101545.78
2023-05-24T01:07:48.332Z,101551.94
2023-05-24T01:10:21.611Z,101543.19
2023-05-24T01:12:57.555Z,101539.81
2023-05-24T01:15:29.284Z,101539.91
2023-05-24T01:18:02.745Z,101534.75
2023-05-24T01:20:33.922Z,101533.97
2023-05-24T01:23:23.253Z,101530.34
2023-05-24T01:26:02.214Z,101538.84
2023-05-24T01:28:33.132Z,101526.84
2023-05-24T01:31:02.197Z,101529.47
2023-05-24T01:33:30.593Z,101523.56
2023-05-24T01:35:58.537Z,101527.84
2023-05-24T01:38:26.464Z,101528.63
2023-05-24T01:41:00.491Z,101529.28
2023-05-24T01:43:34.821Z,101535.25
2023-05-24T01:46:08.650Z,101536.31
2023-05-24T01:48:44.675Z,101538.03
2023-05-24T01:51:13.217Z,101533.09
2023-05-24T01:53:47.706Z,101539.06
2023-05-24T01:56:19.553Z,101551.16
2023-05-24T01:58:52.214Z,101543.34
2023-05-24T02:01:20.447Z,101544.28
2023-05-24T02:03:48.563Z,101540.75
2023-05-24T02:06:16.636Z,101541.56
2023-05-24T02:08:44.601Z,101545.78
2023-05-24T02:11:12.772Z,101539.88
2023-05-24T02:13:40.646Z,101553.75
2023-05-24T02:16:10.763Z,101547.84
2023-05-24T02:18:38.802Z,101538.41
2023-05-24T02:21:06.871Z,101529.63
2023-05-24T02:23:34.786Z,101537.28
2023-05-24T02:26:02.730Z,101538.13
2023-05-24T02:28:32.360Z,101546.75
2023-05-24T02:31:00.598Z,101542.47
2023-05-24T02:33:30.298Z,101545.97
2023-05-24T02:35:58.540Z,101536.53
2023-05-24T02:38:26.577Z,101535.56
2023-05-24T02:40:54.559Z,101549.41
2023-05-24T02:43:22.520Z,101546.81
2023-05-24T02:45:50.724Z,101548.59
2023-05-24T02:48:18.650Z,101545.22
2023-05-24T02:50:47.963Z,101541.78
2023-05-24T02:53:16.010Z,101544.31
2023-05-24T02:55:46.791Z,101546.81
2023-05-24T02:58:17.708Z,101543.28
2023-05-24T03:00:48.117Z,101548.50
2023-05-24T03:03:16.595Z,101545.94
2023-05-24T03:05:47.427Z,101548.56
2023-05-24T03:08:15.390Z,101545.94
2023-05-24T03:10:43.663Z,101546.72
2023-05-24T03:13:11.970Z,101548.50
2023-05-24T03:15:39.983Z,101555.38
2023-05-24T03:18:08.494Z,101546.72
2023-05-24T03:20:36.565Z,101550.97
2023-05-24T03:23:05.934Z,101546.47
2023-05-24T03:25:34.372Z,101550.84
2023-05-24T03:28:02.620Z,101551.75
2023-05-24T03:30:30.992Z,101550.19
2023-05-24T03:33:01.308Z,101545.00
2023-05-24T03:35:29.628Z,101549.34
2023-05-24T03:37:58.187Z,101545.03
2023-05-24T03:40:32.454Z,101548.50
2023-05-24T03:43:06.802Z,101544.16
2023-05-24T03:45:55.074Z,101558.78
2023-05-24T03:48:22.995Z,101557.00
2023-05-24T03:50:52.537Z,101555.31
2023-05-24T03:53:23.433Z,101553.44
2023-05-24T03:55:53.114Z,101557.75
2023-05-24T03:58:21.102Z,101566.41
2023-05-24T04:00:49.048Z,101563.75
2023-05-24T04:03:17.059Z,101564.66
2023-05-24T04:05:45.300Z,101566.34
2023-05-24T04:08:15.041Z,101568.00
2023-05-24T04:10:43.475Z,101565.41
2023-05-24T04:13:15.693Z,101567.91
2023-05-24T04:15:43.723Z,101568.75
2023-05-24T04:18:13.119Z,101575.53
2023-05-24T04:20:41.846Z,101577.19
2023-05-24T04:23:10.935Z,101576.28
2023-05-24T04:25:38.947Z,101584.28
2023-05-24T04:28:07.578Z,101590.34
2023-05-24T04:30:37.143Z,101585.09
2023-05-24T04:33:05.549Z,101586.91
2023-05-24T04:35:34.017Z,101597.44
2023-05-24T04:38:02.032Z,101592.22
2023-05-24T04:40:29.958Z,101587.84
2023-05-24T04:42:57.921Z,101602.59
2023-05-24T04:45:26.048Z,101592.19
2023-05-24T04:47:55.382Z,101595.53
2023-05-24T04:50:23.798Z,101598.00
2023-05-24T04:52:51.787Z,101596.38
2023-05-24T04:55:19.748Z,101592.97
2023-05-24T04:57:47.696Z,101594.56
2023-05-24T05:00:16.484Z,101597.16
2023-05-24T05:02:44.461Z,101595.31
2023-05-24T05:05:14.689Z,101600.50
2023-05-24T05:07:42.615Z,101598.81
2023-05-24T05:10:12.346Z,101599.66
2023-05-24T05:12:40.284Z,101600.44
2023-05-24T05:15:10.271Z,101613.47
2023-05-24T05:17:38.400Z,101610.94
2023-05-24T05:20:08.021Z,101614.31
2023-05-24T05:22:37.491Z,101621.25
2023-05-24T05:25:06.003Z,101624.81
2023-05-24T05:27:33.962Z,101629.34
2023-05-24T05:30:01.958Z,101612.00
2023-05-24T05:32:30.017Z,101600.72
2023-05-24T05:34:58.193Z,101594.50
2023-05-24T05:37:26.489Z,101603.81
2023-05-24T05:39:56.553Z,101603.59
2023-05-24T05:42:24.554Z,101606.78
2023-05-24T05:44:53.497Z,101614.59
2023-05-24T05:47:21.442Z,101620.63
2023-05-24T05:49:49.585Z,101630.09
2023-05-24T05:52:17.499Z,101635.34
2023-05-24T05:54:45.391Z,101636.28
2023-05-24T05:57:16.343Z,101641.44
2023-05-24T05:59:44.384Z,101641.72
2023-05-24T06:02:12.989Z,101634.66
2023-05-24T06:04:41.081Z,101637.28
2023-05-24T06:07:09.186Z,101632.06
2023-05-24T06:09:37.082Z,101632.16
2023-05-24T06:12:05.888Z,101639.81
2023-05-24T06:14:38.421Z,101635.34
2023-05-24T06:17:06.848Z,101635.38
2023-05-24T06:19:34.866Z,101630.13
2023-05-24T06:22:02.853Z,101627.47
2023-05-24T06:24:30.934Z,101619.56
2023-05-24T06:26:59.892Z,101613.50
2023-05-24T06:29:27.851Z,101610.78
2023-05-24T06:31:57.287Z,101615.78
2023-05-24T06:34:25.768Z,101616.69
2023-05-24T06:36:53.674Z,101621.81
2023-05-24T06:39:21.602Z,101626.00
2023-05-24T06:41:51.392Z,101633.66
2023-05-24T06:44:31.874Z,101639.53
2023-05-24T06:47:02.257Z,101645.38
2023-05-24T06:49:30.856Z,101662.25
2023-05-24T06:51:58.966Z,101661.00
2023-05-24T06:54:26.913Z,101674.34
2023-05-24T06:56:55.918Z,101698.03
2023-05-24T06:59:24.064Z,101736.97
2023-05-24T07:01:57.940Z,101752.78
2023-05-24T07:04:29.292Z,101767.84
2023-05-24T07:06:57.938Z,101770.59
2023-05-24T07:09:25.918Z,101786.50
2023-05-24T07:11:54.157Z,101801.31
2023-05-24T07:14:23.424Z,101801.66
2023-05-24T07:16:51.472Z,101807.47
2023-05-24T07:19:22.008Z,101818.59
2023-05-24T07:21:52.371Z,101816.22
2023-05-24T07:24:22.129Z,101816.75
2023-05-24T07:26:50.230Z,101809.56
2023-05-24T07:29:18.493Z,101818.72
2023-05-24T07:31:46.526Z,101814.44
2023-05-24T07:34:14.431Z,101811.09
2023-05-24T07:36:42.471Z,101815.09
2023-05-24T07:39:15.720Z,101806.75
2023-05-24T07:41:43.718Z,101804.00
2023-05-24T07:44:12.195Z,101817.94
2023-05-24T07:46:40.205Z,101832.50
2023-05-24T07:49:08.143Z,101836.38
2023-05-24T07:51:36.880Z,101845.91
2023-05-24T07:54:05.008Z,101858.13
2023-05-24T07:56:34.357Z,101872.81
2023-05-24T07:59:04.831Z,101874.22
2023-05-24T08:01:34.453Z,101882.38
2023-05-24T08:04:04.209Z,101884.75
2023-05-24T08:06:32.886Z,101884.31
2023-05-24T08:09:00.936Z,101896.47
2023-05-24T08:11:29.048Z,101894.22
2023-05-24T08:13:58.319Z,101895.19
2023-05-24T08:16:26.350Z,101894.06
2023-05-24T08:18:55.312Z,101895.47
2023-05-24T08:21:24.198Z,101898.59
2023-05-24T08:23:52.222Z,101896.81
2023-05-24T08:26:21.111Z,101901.78
2023-05-24T08:28:49.160Z,101902.47
2023-05-24T08:31:18.538Z,101902.38
2023-05-24T08:33:50.393Z,101914.94
2023-05-24T08:36:18.702Z,101919.50
2023-05-24T08:38:46.663Z,101915.22
2023-05-24T08:41:15.310Z,101920.69
2023-05-24T08:43:43.763Z,101923.72
2023-05-24T08:46:12.630Z,101928.66
2023-05-24T08:48:46.131Z,101927.09
2023-05-24T08:51:15.647Z,101932.53
2023-05-24T08:53:48.464Z,101929.25
2023-05-24T08:56:18.328Z,101930.50
2023-05-24T08:58:47.215Z,101932.59
2023-05-24T09:01:15.748Z,101934.41
2023-05-24T09:03:46.717Z,101932.47
2023-05-24T09:06:15.225Z,101940.44
2023-05-24T09:08:45.210Z,101933.97
2023-05-24T09:11:13.335Z,101935.00
2023-05-24T09:13:41.337Z,101927.66
2023-05-24T09:16:09.419Z,101936.88
2023-05-24T09:18:37.479Z,101945.84
2023-05-24T09:21:08.154Z,101937.25
2023-05-24T09:23:36.734Z,101933.75
2023-05-24T09:26:09.465Z,101945.97
2023-05-24T09:28:38.362Z,101941.22
2023-05-24T09:31:08.143Z,101940.31
2023-05-24T09:33:39.233Z,101938.28
2023-05-24T09:36:09.515Z,101951.19
2023-05-24T09:38:37.487Z,101961.69
2023-05-24T09:41:08.470Z,101961.63
2023-05-24T09:43:48.543Z,101947.34
2023-05-24T09:46:18.859Z,101958.25
2023-05-24T09:48:57.655Z,101959.19
2023-05-24T09:51:28.096Z,101960.47
2023-05-24T09:53:58.305Z,101966.81
2023-05-24T09:56:26.279Z,101953.97
2023-05-24T09:58:55.001Z,101950.97
2023-05-24T10:01:25.427Z,101953.97
2023-05-24T10:03:55.057Z,101953.31
2023-05-24T10:06:24.028Z,101951.03
2023-05-24T10:08:54.455Z,101947.34
2023-05-24T10:11:22.555Z,101956.97
2023-05-24T10:13:51.165Z,101963.81
2023-05-24T10:16:19.311Z,101971.25
2023-05-24T10:18:47.555Z,101982.41
2023-05-24T10:21:15.591Z,101974.53
2023-05-24T10:23:45.647Z,101971.66
2023-05-24T10:26:15.962Z,101982.66
2023-05-24T10:28:46.151Z,101979.34
2023-05-24T10:31:16.927Z,101985.53
2023-05-24T10:33:46.535Z,101985.44
2023-05-24T10:36:16.054Z,101986.44
2023-05-24T10:38:44.311Z,101989.09
2023-05-24T10:41:14.326Z,101990.91
2023-05-24T10:44:00.654Z,102003.38
2023-05-24T10:46:35.083Z,101996.16
2023-05-24T10:49:04.581Z,101992.47
2023-05-24T10:51:38.634Z,101991.19
2023-05-24T10:54:14.900Z,101997.41
2023-05-24T10:56:45.744Z,101999.28
2023-05-24T10:59:31.802Z,101992.03
2023-05-24T11:02:02.012Z,101987.88
2023-05-24T11:04:35.286Z,101985.56
2023-05-24T11:07:05.376Z,101985.31
2023-05-24T11:09:33.860Z,101988.72
2023-05-24T11:12:07.494Z,101987.94
2023-05-24T11:14:39.493Z,101992.38
2023-05-24T11:17:08.187Z,101983.72
2023-05-24T11:19:37.572Z,101989.19
2023-05-24T11:22:08.298Z,101976.22
2023-05-24T11:24:36.455Z,101976.22
2023-05-24T11:27:06.217Z,101982.28
2023-05-24T11:29:36.079Z,101993.38
2023-05-24T11:32:07.955Z,101988.78
2023-05-24T11:34:36.290Z,101984.47
2023-05-24T11:37:06.084Z,101978.50
2023-05-24T11:39:35.492Z,101979.69
2023-05-24T11:42:07.648Z,101988.16
2023-05-24T11:44:38.114Z,101995.88
2023-05-24T11:47:09.748Z,102008.94
2023-05-24T11:49:37.688Z,102009.53
2023-05-24T11:52:06.600Z,102007.78
2023-05-24T11:54:35.091Z,102014.03
2023-05-24T11:57:03.637Z,102009.66
2023-05-24T11:59:35.812Z,102009.75
2023-05-24T12:02:05.720Z,102010.41
2023-05-24T12:04:34.925Z,102019.38
2023-05-24T12:07:03.687Z,102024.00
2023-05-24T12:09:31.613Z,102021.69
2023-05-24T12:11:59.685Z,102024.78
2023-05-24T12:14:31.100Z,102027.91
2023-05-24T12:17:01.354Z,102034.03
2023-05-24T12:19:34.699Z,102029.38
2023-05-24T12:22:06.423Z,102024.06
2023-05-24T12:24:34.999Z,102031.91
2023-05-24T12:27:06.811Z,102026.53
2023-05-24T12:29:36.743Z,102033.44
2023-05-24T12:32:11.890Z,102035.41
2023-05-24T12:34:41.900Z,102028.31
2023-05-24T12:37:10.102Z,102032.88
2023-05-24T12:39:38.366Z,102019.75
2023-05-24T12:42:06.523Z,102023.03
2023-05-24T12:44:36.500Z,102013.22
2023-05-24T12:47:07.550Z,102007.50
2023-05-24T12:49:35.812Z,102019.63
2023-05-24T12:52:03.779Z,102009.19
2023-05-24T12:54:32.043Z,102013.13
2023-05-24T12:57:02.729Z,102018.44
2023-05-24T12:59:31.199Z,102023.16
2023-05-24T13:01:59.491Z,102017.91
2023-05-24T13:04:31.724Z,102021.06
2023-05-24T13:07:00.374Z,102023.34
2023-05-24T13:09:28.560Z,102018.72
2023-05-24T13:11:56.782Z,102017.59
2023-05-24T13:14:24.740Z,102022.59
2023-05-24T13:16:52.793Z,102024.13
2023-05-24T13:19:20.871Z,102021.38
2023-05-24T13:21:52.677Z,102028.09
2023-05-24T13:24:20.692Z,102032.44
2023-05-24T13:26:49.104Z,102031.69
2023-05-24T13:29:34.354Z,102040.97
2023-05-24T13:32:06.616Z,102033.00
2023-05-24T13:34:34.673Z,102031.94
2023-05-24T13:37:03.984Z,102031.13
2023-05-24T13:39:32.192Z,102027.38
2023-05-24T13:42:01.120Z,102041.81
2023-05-24T13:44:29.520Z,102023.91
2023-05-24T13:46:57.714Z,102024.41
2023-05-24T13:49:25.821Z,102022.63
2023-05-24T13:51:57.259Z,102028.09
2023-05-24T13:54:28.159Z,102025.81
2023-05-24T13:56:57.562Z,102019.88
2023-05-24T13:59:27.213Z,102032.22
2023-05-24T14:01:55.318Z,102025.69
2023-05-24T14:04:23.435Z,102031.78
2023-05-24T14:06:51.391Z,102025.91
2023-05-24T14:09:21.315Z,102032.09
2023-05-24T14:11:50.882Z,102023.63
2023-05-24T14:16:52.208Z,102019.47
2023-05-24T14:19:20.396Z,102030.56
2023-05-24T14:21:48.382Z,102023.25
2023-05-24T14:24:16.507Z,102032.53
2023-05-24T14:26:44.531Z,102024.06
2023-05-24T14:29:14.147Z,102036.28
2023-05-24T14:31:43.069Z,102034.50
2023-05-24T14:34:12.047Z,102030.88
2023-05-24T14:36:40.476Z,102041.06
2023-05-24T14:39:08.854Z,102031.44
2023-05-24T14:41:37.052Z,102036.44
2023-05-24T14:44:05.057Z,102039.09
2023-05-24T14:46:34.901Z,102044.31
2023-05-24T14:49:03.500Z,102038.03
2023-05-24T14:51:31.442Z,102043.75
2023-05-24T14:53:59.495Z,102044.63
2023-05-24T14:56:27.476Z,102048.59
2023-05-24T14:58:55.481Z,102059.03
2023-05-24T15:01:23.524Z,102046.94
2023-05-24T15:03:53.172Z,102052.13
2023-05-24T15:06:21.217Z,102062.13
2023-05-24T15:08:49.306Z,102064.59
2023-05-24T15:11:19.435Z,102056.41
2023-05-24T15:13:47.405Z,102063.00
2023-05-24T15:16:15.346Z,102060.19
2023-05-24T15:18:43.261Z,102055.59
2023-05-24T15:21:12.545Z,102053.38
2023-05-24T15:23:40.641Z,102049.59
2023-05-24T15:26:08.963Z,102056.53
2023-05-24T15:28:36.892Z,102056.78
2023-05-24T15:31:05.043Z,102052.63
2023-05-24T15:33:33.664Z,102060.66
2023-05-24T15:36:01.694Z,102050.97
2023-05-24T15:38:31.105Z,102056.53
2023-05-24T15:40:59.127Z,102052.97
2023-05-24T15:43:27.120Z,102053.88
2023-05-24T15:45:55.100Z,102065.13
2023-05-24T15:48:23.990Z,102066.56
2023-05-24T15:51:32.550Z,102064.78
2023-05-24T15:53:41.711Z,102069.38
2023-05-24T15:56:10.190Z,102070.56
2023-05-24T15:58:38.272Z,102070.94
2023-05-24T16:01:06.299Z,102070.06
2023-05-24T16:03:34.426Z,102068.75
2023-05-24T16:06:02.667Z,102064.47
2023-05-24T16:08:30.712Z,102065.88
2023-05-24T16:11:00.129Z,102059.25
2023-05-24T16:13:28.221Z,102059.59
2023-05-24T16:15:56.516Z,102051.69
2023-05-24T16:18:26.976Z,102056.81
2023-05-24T16:20:56.437Z,102056.97
2023-05-24T16:23:25.816Z,102056.31
2023-05-24T16:25:53.827Z,102058.22
2023-05-24T16:28:24.661Z,102058.97
2023-05-24T16:30:55.905Z,102058.69
2023-05-24T16:33:24.797Z,102052.81
2023-05-24T16:35:56.563Z,102058.22
2023-05-24T16:38:25.568Z,102049.34
2023-05-24T16:40:53.870Z,102058.63
2023-05-24T16:43:23.293Z,102058.66
2023-05-24T16:45:51.492Z,102053.53
2023-05-24T16:48:23.270Z,102052.81
2023-05-24T16:50:53.927Z,102057.56
2023-05-24T16:53:24.532Z,102052.09
2023-05-24T16:55:54.242Z,102049.34
2023-05-24T16:58:24.279Z,102053.59
2023-05-24T17:00:54.443Z,102053.78
2023-05-24T17:03:27.927Z,102057.50
2023-05-24T17:05:56.851Z,102050.53
2023-05-24T17:08:25.853Z,102052.25
2023-05-24T17:10:56.319Z,102051.56
2023-05-24T17:13:27.692Z,102057.91
2023-05-24T17:15:56.440Z,102049.97
2023-05-24T17:18:28.854Z,102056.09
2023-05-24T17:20:57.384Z,102051.81
2023-05-24T17:23:26.237Z,102056.34
2023-05-24T17:25:55.536Z,102060.19
2023-05-24T17:28:27.337Z,102057.09
2023-05-24T17:30:57.677Z,102061.34
2023-05-24T17:33:26.378Z,102062.41
2023-05-24T17:35:56.521Z,102062.59
2023-05-24T17:38:25.477Z,102058.19
2023-05-24T17:40:57.063Z,102058.13
2023-05-24T17:43:28.945Z,102064.59
2023-05-24T17:46:03.686Z,102060.97
2023-05-24T17:48:32.697Z,102065.63
2023-05-24T17:51:00.942Z,102058.03
2023-05-24T17:53:31.595Z,102066.97
2023-05-24T17:56:00.615Z,102065.06
2023-05-24T17:58:28.728Z,102066.97
2023-05-24T18:00:58.117Z,102066.09
2023-05-24T18:03:26.320Z,102075.22
2023-05-24T18:05:54.250Z,102071.94
2023-05-24T18:08:22.762Z,102074.44
2023-05-24T18:10:50.904Z,102080.97
2023-05-24T18:13:19.405Z,102081.28
2023-05-24T18:15:47.415Z,102070.75
2023-05-24T18:18:17.215Z,102076.88
2023-05-24T18:20:45.396Z,102076.03
2023-05-24T18:23:13.739Z,102088.13
2023-05-24T18:25:43.973Z,102091.72
2023-05-24T18:28:12.224Z,102079.75
2023-05-24T18:30:40.271Z,102084.94
2023-05-24T18:33:08.769Z,102080.63
2023-05-24T18:35:38.313Z,102091.38
2023-05-24T18:38:06.377Z,102087.03
2023-05-24T18:40:34.400Z,102092.41
2023-05-24T18:43:02.473Z,102091.69
2023-05-24T18:45:30.546Z,102090.09
2023-05-24T18:47:58.882Z,102097.06
2023-05-24T18:50:26.922Z,102093.78
2023-05-24T18:52:56.351Z,102099.06
2023-05-24T18:55:24.341Z,102091.38
2023-05-24T18:57:52.630Z,102101.16
2023-05-24T19:00:22.844Z,102094.13
2023-05-24T19:02:51.370Z,102102.66
2023-05-24T19:05:20.747Z,102101.94
2023-05-24T19:07:48.773Z,102099.19
2023-05-24T19:10:18.701Z,102106.03
2023-05-24T19:12:46.731Z,102105.16
2023-05-24T19:15:18.368Z,102112.13
2023-05-24T19:17:47.819Z,102114.91
2023-05-24T19:20:16.061Z,102112.34
2023-05-24T19:22:44.034Z,102105.34
2023-05-24T19:25:12.207Z,102114.06
2023-05-24T19:27:54.795Z,102111.41
2023-05-24T19:30:27.009Z,102114.25
2023-05-24T19:32:55.199Z,102118.75
2023-05-24T19:35:23.378Z,102122.22
2023-05-24T19:37:52.596Z,102117.03
2023-05-24T19:40:20.699Z,102119.66
2023-05-24T19:42:50.149Z,102118.00
2023-05-24T19:45:18.201Z,102111.13
2023-05-24T19:47:46.416Z,102113.84
2023-05-24T19:50:14.514Z,102118.25
2023-05-24T19:52:42.789Z,102110.47
2023-05-24T19:55:11.195Z,102114.00
2023-05-24T19:57:39.241Z,102118.44
2023-05-24T20:00:09.516Z,102114.97
2023-05-24T20:02:40.708Z,102114.22
2023-05-24T20:05:10.055Z,102114.31
2023-05-24T20:07:38.139Z,102117.03
2023-05-24T20:10:10.206Z,102113.56
2023-05-24T20:12:38.525Z,102117.16
2023-05-24T20:15:10.846Z,102110.22
2023-05-24T20:17:38.930Z,102110.31
2023-05-24T20:20:08.300Z,102112.94
2023-05-24T20:22:36.318Z,102113.00
2023-05-24T20:25:04.399Z,102119.22
2023-05-24T20:27:32.336Z,102116.66
2023-05-24T20:30:00.220Z,102116.72
2023-05-24T20:32:29.518Z,102119.34
2023-05-24T20:34:57.539Z,102119.44
2023-05-24T20:37:25.490Z,102115.13
2023-05-24T20:39:53.402Z,102121.28
2023-05-24T20:42:21.322Z,102118.69
2023-05-24T20:44:49.295Z,102117.84
2023-05-24T20:47:19.146Z,102117.03
2023-05-24T20:49:48.531Z,102116.94
2023-05-24T20:52:16.900Z,102122.31
2023-05-24T20:54:45.014Z,102118.00
2023-05-24T20:57:12.936Z,102114.66
2023-05-24T20:59:41.060Z,102120.81
2023-05-24T21:02:09.075Z,102126.16
2023-05-24T21:04:37.016Z,102133.38
2023-05-24T21:07:07.922Z,102138.88
2023-05-24T21:09:36.188Z,102138.88
2023-05-24T21:12:04.121Z,102134.41
2023-05-24T21:14:32.078Z,102138.78
2023-05-24T21:17:00.117Z,102151.84
2023-05-24T21:19:28.190Z,102150.09
2023-05-24T21:21:56.178Z,102147.50
2023-05-24T21:24:25.564Z,102151.84
2023-05-24T21:26:53.510Z,102151.91
2023-05-24T21:29:21.443Z,102150.22
2023-05-24T21:31:49.507Z,102159.78
2023-05-24T21:34:17.566Z,102154.63
2023-05-24T21:36:45.460Z,102154.66
2023-05-24T21:39:13.457Z,102156.44
2023-05-24T21:41:42.803Z,102157.31
2023-05-24T21:44:10.731Z,102161.72
2023-05-24T21:46:38.671Z,102160.91
2023-05-24T21:49:06.640Z,102152.25
2023-05-24T21:51:34.628Z,102153.13
2023-05-24T21:54:02.593Z,102151.47
2023-05-24T21:56:30.946Z,102156.69
2023-05-24T21:59:00.258Z,102151.41
2023-05-24T22:01:28.922Z,102148.00
2023-05-24T22:03:56.960Z,102142.78
2023-05-24T22:06:25.134Z,102145.47
2023-05-24T22:08:53.083Z,102147.19
2023-05-24T22:11:21.381Z,102157.56
2023-05-24T22:13:49.512Z,102161.88
2023-05-24T22:16:18.983Z,102161.81
2023-05-24T22:18:47.949Z,102160.03
2023-05-24T22:21:16.005Z,102158.22
2023-05-24T22:23:44.137Z,102157.34
2023-05-24T22:26:12.918Z,102155.53
2023-05-24T22:28:54.885Z,102162.47
2023-05-24T22:31:24.742Z,102159.06
2023-05-24T22:33:52.692Z,102156.44
2023-05-24T22:36:21.002Z,102159.00
2023-05-24T22:38:48.996Z,102158.97
2023-05-24T22:41:16.911Z,102153.84
2023-05-24T22:43:45.147Z,102152.97
2023-05-24T22:46:13.101Z,102163.25
2023-05-24T22:48:42.428Z,102162.41
2023-05-24T22:51:12.084Z,102170.25
2023-05-24T22:53:40.568Z,102163.41
2023-05-24T22:56:10.494Z,102167.63
2023-05-24T22:58:38.769Z,102160.75
2023-05-24T23:01:06.909Z,102175.56
2023-05-24T23:03:34.949Z,102169.34
2023-05-24T23:06:05.643Z,102169.38
2023-05-24T23:08:33.989Z,102166.66
2023-05-24T23:11:02.143Z,102171.91
2023-05-24T23:13:33.787Z,102176.34
2023-05-24T23:16:01.795Z,102177.28
2023-05-24T23:18:29.850Z,102179.09
2023-05-24T23:20:57.987Z,102178.25
2023-05-24T23:23:27.718Z,102173.88
2023-05-24T23:25:55.758Z,102181.78
2023-05-24T23:28:23.797Z,102183.53
2023-05-24T23:30:51.825Z,102197.31
2023-05-24T23:33:19.848Z,102189.63
2023-05-24T23:35:47.764Z,102181.81
2023-05-24T23:38:16.133Z,102180.94
2023-05-24T23:40:45.432Z,102181.78
2023-05-24T23:43:13.378Z,102185.28
2023-05-24T23:45:41.452Z,102186.06
2023-05-24T23:48:09.492Z,102180.88
2023-05-24T23:50:50.253Z,102179.97
2023-05-24T23:53:21.447Z,102178.25
2023-05-24T23:55:50.802Z,102189.47
2023-05-24T23:58:18.769Z,102189.50
